May 23, 2022

Time Code Weather Temp. Visibility Clouds Wind METAR/SPECI
8:00 pm
V
68 °F 6¼ mi+ - 280°   280° 5 kt METAR LFCK 231800Z AUTO 28005KT CAVOK 20/13 Q1011 NOSIG
7:30 pm
V
68 °F 6¼ mi+ - 290°   290° 8 kt METAR LFCK 231730Z AUTO 29008KT CAVOK 20/13 Q1011 NOSIG
7:00 pm
V
68 °F 6¼ mi+ - 270°   270° 9 kt METAR LFCK 231700Z AUTO 27009KT 250V320 9999 FEW043 SCT054 20/13 Q1011 NOSIG
6:30 pm
V
68 °F 6¼ mi+ 4,400 ft 270°   270° 10 kt METAR LFCK 231630Z AUTO 27010KT 9999 FEW035 BKN044 20/13 Q1011 NOSIG
6:00 pm
V
68 °F 6¼ mi+ - 280°   280° 11 kt METAR LFCK 231600Z AUTO 28011KT CAVOK 20/12 Q1011 NOSIG
5:30 pm
V
68 °F 6¼ mi+ 4,600 ft 260°   260° 11 kt METAR LFCK 231530Z AUTO 26011KT 9999 OVC046 20/13 Q1011 NOSIG
5:00 pm
V
68 °F 6¼ mi+ 4,900 ft 280°   280° 11 kt METAR LFCK 231500Z AUTO 28011KT 9999 FEW030 OVC049 20/12 Q1011 NOSIG
4:30 pm
V
68 °F 6¼ mi+ 4,800 ft 280°   280° 15 kt METAR LFCK 231430Z AUTO 28015KT 9999 FEW040 OVC048 20/12 Q1011 NOSIG
4:00 pm
M
66 °F 6¼ mi+ 2,300 ft 300°   300° 9 kt METAR LFCK 231400Z AUTO 30009KT 270V330 9999 BKN023 OVC040 19/14 Q1011 NOSIG
3:30 pm
V
64 °F 6¼ mi+ 3,400 ft 300°   300° 10 kt METAR LFCK 231330Z AUTO 30010KT 9999 SCT026 OVC034 18/14 Q1012 NOSIG
3:00 pm
M
66 °F 6¼ mi+ 2,100 ft 300°   300° 9 kt METAR LFCK 231300Z AUTO 30009KT 270V340 9999 BKN021 BKN029 OVC036 19/14 Q1011 NOSIG
2:30 pm
M
66 °F 6¼ mi+ 2,100 ft 310°   310° 8 kt METAR LFCK 231230Z AUTO 31008KT 9999 BKN021 BKN028 OVC039 19/14 Q1011 NOSIG
2:00 pm
M
64 °F 6¼ mi+ 2,300 ft 290°   290° 7 kt METAR LFCK 231200Z AUTO 29007KT 9999 FEW017 BKN023 BKN031 18/14 Q1012 NOSIG
1:30 pm
M
64 °F 6¼ mi+ 2,000 ft 290°   290° 10 kt METAR LFCK 231130Z AUTO 29010KT 9999 BKN020 BKN028 BKN033 18/14 Q1012 NOSIG
1:00 pm
M
64 °F 6¼ mi+ 2,500 ft 290°   290° 11 kt METAR LFCK 231100Z AUTO 29011KT 9999 SCT017 BKN025 BKN035 18/14 Q1012 NOSIG
12:30 pm
M
66 °F 6¼ mi+ 1,700 ft 290°   290° 9 kt METAR LFCK 231030Z AUTO 29009KT 9999 BKN017 OVC024 19/14 Q1012 NOSIG
12:00 pm
M
64 °F 6¼ mi+ 1,700 ft 280°   280° 10 kt METAR LFCK 231000Z AUTO 28010KT 9999 OVC017 18/14 Q1012 NOSIG
11:30 am
M
64 °F 6¼ mi+ 1,800 ft 280°   280° 10 kt METAR LFCK 230930Z AUTO 28010KT 9999 OVC018 18/14 Q1012 NOSIG
11:00 am
M
64 °F 6¼ mi+ 1,700 ft 280°   280° 8 kt METAR LFCK 230900Z AUTO 28008KT 9999 OVC017 18/14 Q1012 NOSIG
10:30 am
M
63 °F 6¼ mi+ 1,600 ft 280°   280° 7 kt METAR LFCK 230830Z AUTO 28007KT 9999 OVC016 17/14 Q1012 NOSIG
10:00 am
M
63 °F 6¼ mi+ 1,300 ft 290°   290° 10 kt METAR LFCK 230800Z AUTO 29010KT 9999 BKN013 OVC018 17/14 Q1012 BECMG BKN030
9:30 am
M
63 °F 6¼ mi+ 1,400 ft 280°   280° 12 kt METAR LFCK 230730Z AUTO 28012KT 9999 OVC014 17/14 Q1011 BECMG BKN030
9:00 am
M
64 °F 6¼ mi+ 1,300 ft 280°   280° 10 kt METAR LFCK 230700Z AUTO 28010KT 9999 BKN013 OVC019 18/15 Q1011 BECMG OVC017
8:30 am
M
64 °F 6¼ mi+ 1,300 ft 270°   270° 10 kt METAR LFCK 230630Z AUTO 27010KT 9999 BKN013 OVC018 18/15 Q1011 BECMG OVC017
8:00 am
M
64 °F 6¼ mi+ 1,300 ft 270°   270° 11 kt METAR LFCK 230600Z AUTO 27011KT 9999 OVC013 18/15 Q1011 BECMG OVC017
7:30 am
M
64 °F 6¼ mi+ 1,600 ft 270°   270° 12 kt METAR LFCK 230530Z AUTO 27012KT 9999 OVC016 18/15 Q1011
7:00 am
M
66 °F 6¼ mi+ 2,000 ft 280°   280° 9 kt METAR LFCK 230500Z AUTO 28009KT 9999 FEW013 OVC020 19/16 Q1011
6:30 am
M
66 °F 6¼ mi+ 2,000 ft 280°   280° 8 kt METAR LFCK 230430Z AUTO 28008KT 9999 OVC020 19/15 Q1010
6:00 am
M
66 °F 6¼ mi+ 2,100 ft 270°   270° 6 kt METAR LFCK 230400Z AUTO 27006KT 9999 OVC021 19/15 Q1010
5:30 am
M
66 °F 6¼ mi+ 1,900 ft 280°   280° 7 kt METAR LFCK 230330Z AUTO 28007KT 9999 OVC019 19/15 Q1010
5:00 am
M
66 °F 6¼ mi+ 1,900 ft 270°   270° 6 kt METAR LFCK 230300Z AUTO 27006KT 9999 OVC019 19/16 Q1011
4:30 am
M
66 °F 6¼ mi+ 1,800 ft 270°   270° 9 kt METAR LFCK 230230Z AUTO 27009KT 9999 OVC018 19/16 Q1011
4:00 am
M
68 °F 6¼ mi+ 2,000 ft 270°   270° 9 kt METAR LFCK 230200Z AUTO 27009KT 9999 BKN020 OVC047 20/15 Q1011
3:30 am
V
68 °F 6¼ mi+ 3,700 ft 260°   260° 12 kt METAR LFCK 230130Z AUTO 26012KT 9999 FEW030 BKN037 OVC043 20/15 Q1011
3:00 am
V
70 °F 6¼ mi+ 3,500 ft 280°   280° 14 kt METAR LFCK 230100Z AUTO 28014KT 9999 FEW029 BKN035 BKN045 21/16 Q1010
2:30 am
V
72 °F 6¼ mi+ - 300°   300° 5 kt METAR LFCK 230030Z AUTO 30005KT CAVOK 22/18 Q1010
2:00 am
V
70 °F 6¼ mi+ - Var   Var 1 kt METAR LFCK 230000Z AUTO VRB01KT CAVOK 21/17 Q1009
1:30 am
V
72 °F 6¼ mi+ - 130°   130° 6 kt METAR LFCK 222330Z AUTO 13006KT CAVOK 22/18 Q1009
1:00 am
V
73 °F 6¼ mi+ - 050°   050° 6 kt METAR LFCK 222300Z AUTO 05006KT CAVOK 23/17 Q1009
12:30 am
V
75 °F 6¼ mi+ - 270°   270° 7 kt METAR LFCK 222230Z AUTO 27007KT 250V350 CAVOK 24/17 Q1010
12:00 am
V
75 °F 6¼ mi+ - Var   Var 2 kt METAR LFCK 222200Z AUTO VRB02KT CAVOK 24/18 Q1010

May 22, 2022

Time Code Weather Temp. Visibility Clouds Wind METAR/SPECI
11:30 pm
V
77 °F 6¼ mi+ - Var   Var 10 kt METAR LFCK 222130Z AUTO VRB10KT CAVOK 25/18 Q1009
11:00 pm
V
79 °F 6¼ mi+ - 120°   120° 16 kt METAR LFCK 222100Z AUTO 12016KT CAVOK 26/18 Q1007 TEMPO 32020G35KT 4000 TSRA SCT050CB
10:30 pm
V
79 °F 6¼ mi+ - 130°   130° 16 kt METAR LFCK 222030Z AUTO 13016KT CAVOK 26/17 Q1008 TEMPO 32020G35KT 4000 TSRA SCT050CB
10:00 pm
V
79 °F 6¼ mi+ - 130°   130° 16 kt METAR LFCK 222000Z AUTO 13016KT CAVOK 26/18 Q1008 NOSIG
9:30 pm
V
79 °F 6¼ mi+ - 140°   140° 5 kt METAR LFCK 221930Z AUTO 14005KT CAVOK 26/18 Q1008 NOSIG
9:00 pm
V
81 °F 6¼ mi+ - 110°   110° 5 kt METAR LFCK 221900Z AUTO 11005KT 040V140 CAVOK 27/19 Q1008 NOSIG
8:30 pm
V
81 °F 6¼ mi+ - 130°   130° 7 kt METAR LFCK 221830Z AUTO 13007KT CAVOK 27/20 Q1008 NOSIG
8:00 pm
V
84 °F 6¼ mi+ - 130°   130° 5 kt METAR LFCK 221800Z AUTO 13005KT 090V220 CAVOK 29/19 Q1008 NOSIG
7:30 pm
V
84 °F 6¼ mi+ - 130°   130° 10 kt METAR LFCK 221730Z AUTO 13010KT 9999 ///TCU 29/19 Q1008 BECMG NSC
7:00 pm
V
86 °F 6¼ mi+ - 120°   120° 10 kt METAR LFCK 221700Z AUTO 12010KT 090V150 CAVOK 30/19 Q1008 NOSIG
6:30 pm
V
86 °F 6¼ mi+ - Var   Var 3 kt METAR LFCK 221630Z AUTO VRB03KT CAVOK 30/20 Q1009 NOSIG
6:00 pm
V
86 °F 6¼ mi+ - 270°   270° 4 kt METAR LFCK 221600Z AUTO 27004KT CAVOK 30/19 Q1009 BECMG 13012KT
5:30 pm
V
88 °F 6¼ mi+ - 260°   260° 6 kt METAR LFCK 221530Z AUTO 26006KT 230V300 CAVOK 31/18 Q1009 BECMG 13012KT
5:00 pm
V
91 °F 6¼ mi+ - 140°   140° 7 kt METAR LFCK 221500Z AUTO 14007KT 110V180 CAVOK 33/17 Q1009 NOSIG
4:30 pm
V
91 °F 6¼ mi+ - 130°   130° 11 kt METAR LFCK 221430Z AUTO 13011KT CAVOK 33/18 Q1009 NOSIG
4:00 pm
V
91 °F 6¼ mi+ - 130°   130° 13 kt METAR LFCK 221400Z AUTO 13013KT CAVOK 33/18 Q1009 NOSIG
3:30 pm
V
90 °F 6¼ mi+ - 120°   120° 15 kt METAR LFCK 221330Z AUTO 12015KT CAVOK 32/17 Q1009 NOSIG
3:00 pm
V
91 °F 6¼ mi+ - 130°   130° 11 kt METAR LFCK 221300Z AUTO 13011KT 090V150 CAVOK 33/17 Q1010 NOSIG
2:30 pm
V
93 °F 6¼ mi+ - 110°   110° 10 kt METAR LFCK 221230Z AUTO 11010KT 070V160 CAVOK 34/16 Q1010 NOSIG
2:00 pm
V
90 °F 6¼ mi+ - 160°   160° 6 kt METAR LFCK 221200Z AUTO 16006KT 110V200 CAVOK 32/15 Q1011 NOSIG
1:30 pm
V
88 °F 6¼ mi+ - 160°   160° 5 kt METAR LFCK 221130Z AUTO 16005KT 100V200 CAVOK 31/14 Q1011 NOSIG
1:00 pm
V
86 °F 6¼ mi+ - 120°   120° 4 kt METAR LFCK 221100Z AUTO 12004KT 050V170 CAVOK 30/13 Q1012 NOSIG
12:30 pm
V
86 °F 6¼ mi+ - Var   Var 3 kt METAR LFCK 221030Z AUTO VRB03KT CAVOK 30/16 Q1012 NOSIG
12:00 pm
V
84 °F 6¼ mi+ - Var   Var 3 kt METAR LFCK 221000Z AUTO VRB03KT CAVOK 29/16 Q1012 NOSIG
11:30 am
V
81 °F 6¼ mi+ - 230°   230° 4 kt METAR LFCK 220930Z AUTO 23004KT 150V280 CAVOK 27/17 Q1013 NOSIG
11:00 am
V
81 °F 6¼ mi+ - 200°   200° 5 kt METAR LFCK 220900Z AUTO 20005KT 140V240 CAVOK 27/15 Q1013 NOSIG
10:30 am
V
77 °F 6¼ mi+ - 250°   250° 3 kt METAR LFCK 220830Z AUTO 25003KT 180V330 CAVOK 25/17 Q1013 NOSIG
10:00 am
V
75 °F 6¼ mi+ - Var   Var 1 kt METAR LFCK 220800Z AUTO VRB01KT CAVOK 24/17 Q1013 NOSIG
9:30 am
V
73 °F 6¼ mi+ - 250°   250° 3 kt METAR LFCK 220730Z AUTO 25003KT 200V290 CAVOK 23/17 Q1014 NOSIG
9:00 am
V
73 °F 6¼ mi+ - 120°   120° 3 kt METAR LFCK 220700Z AUTO 12003KT 070V160 CAVOK 23/17 Q1014 NOSIG
8:30 am
V
70 °F 6¼ mi+ - 110°   110° 7 kt METAR LFCK 220630Z AUTO 11007KT CAVOK 21/17 Q1014 NOSIG
8:00 am
V
64 °F 6¼ mi+ - 110°   110° 3 kt METAR LFCK 220600Z AUTO 11003KT CAVOK 18/16 Q1015 NOSIG
7:30 am
V
63 °F 6¼ mi+ - 040°   040° 4 kt METAR LFCK 220530Z AUTO 04004KT CAVOK 17/16 Q1015
7:00 am
V
63 °F 6¼ mi+ - 260°   260° 3 kt METAR LFCK 220500Z AUTO 26003KT CAVOK 17/16 Q1014
6:30 am
V
63 °F 6¼ mi+ - 290°   290° 8 kt METAR LFCK 220430Z AUTO 29008KT CAVOK 17/15 Q1014
6:00 am
V
61 °F 6¼ mi+ - 300°   300° 3 kt METAR LFCK 220400Z AUTO 30003KT CAVOK 16/14 Q1013
5:30 am
V
61 °F 6¼ mi+ - 010°   010° 3 kt METAR LFCK 220330Z AUTO 01003KT 310V040 CAVOK 16/13 Q1013
5:00 am
V
63 °F 6¼ mi+ - 110°   110° 5 kt METAR LFCK 220300Z AUTO 11005KT 060V150 CAVOK 17/13 Q1013
4:30 am
V
63 °F 6¼ mi+ - Var   Var 2 kt METAR LFCK 220230Z AUTO VRB02KT CAVOK 17/14 Q1014
4:00 am
V
63 °F 6¼ mi+ - 060°   060° 4 kt METAR LFCK 220200Z AUTO 06004KT CAVOK 17/14 Q1014
3:30 am
V
64 °F 6¼ mi+ - Var   Var 2 kt METAR LFCK 220130Z AUTO VRB02KT CAVOK 18/15 Q1014
3:00 am
V
66 °F 6¼ mi+ - Var   Var 3 kt METAR LFCK 220100Z AUTO VRB03KT CAVOK 19/16 Q1014
2:30 am
V
66 °F 6¼ mi+ - 040°   040° 2 kt METAR LFCK 220030Z AUTO 04002KT CAVOK 19/16 Q1014
2:00 am
V
68 °F 6¼ mi+ - 090°   090° 3 kt METAR LFCK 220000Z AUTO 09003KT 040V140 CAVOK 20/16 Q1015
1:30 am
V
70 °F 6¼ mi+ - 160°   160° 9 kt METAR LFCK 212330Z AUTO 16009KT CAVOK 21/17 Q1015
1:00 am
V
70 °F 6¼ mi+ - 150°   150° 6 kt METAR LFCK 212300Z AUTO 15006KT CAVOK 21/17 Q1015
12:30 am
V
72 °F 6¼ mi+ - 120°   120° 5 kt METAR LFCK 212230Z AUTO 12005KT CAVOK 22/17 Q1016
12:00 am
V
72 °F 6¼ mi+ - 130°   130° 5 kt METAR LFCK 212200Z AUTO 13005KT CAVOK 22/18 Q1016

May 21, 2022

Time Code Weather Temp. Visibility Clouds Wind METAR/SPECI
11:30 pm
V
75 °F 6¼ mi+ - 110°   110° 6 kt METAR LFCK 212130Z AUTO 11006KT CAVOK 24/18 Q1016
11:00 pm
V
75 °F 6¼ mi+ - 120°   120° 12 kt METAR LFCK 212100Z AUTO 12012KT CAVOK 24/18 Q1016 NOSIG
10:30 pm
V
75 °F 6¼ mi+ - 150°   150° 8 kt METAR LFCK 212030Z AUTO 15008KT CAVOK 24/18 Q1017 NOSIG
10:00 pm
V
77 °F 6¼ mi+ - 120°   120° 10 kt METAR LFCK 212000Z AUTO 12010KT CAVOK 25/18 Q1017 NOSIG
9:30 pm
V
79 °F 6¼ mi+ - 130°   130° 11 kt METAR LFCK 211930Z AUTO 13011KT CAVOK 26/18 Q1017 NOSIG
9:00 pm
V
81 °F 6¼ mi+ - 130°   130° 11 kt METAR LFCK 211900Z AUTO 13011KT CAVOK 27/18 Q1017 NOSIG
8:30 pm
V
82 °F 6¼ mi+ - 120°   120° 12 kt METAR LFCK 211830Z AUTO 12012KT CAVOK 28/18 Q1017 NOSIG
8:00 pm
V
82 °F 6¼ mi+ - 120°   120° 12 kt METAR LFCK 211800Z AUTO 12012KT CAVOK 28/18 Q1016 NOSIG
7:30 pm
V
84 °F 6¼ mi+ - 130°   130° 13 kt METAR LFCK 211730Z AUTO 13013KT CAVOK 29/18 Q1016 NOSIG
7:00 pm
V
86 °F 6¼ mi+ - 120°   120° 11 kt METAR LFCK 211700Z AUTO 12011KT CAVOK 30/18 Q1016 NOSIG
6:30 pm
V
88 °F 6¼ mi+ - 110°   110° 14 kt METAR LFCK 211630Z AUTO 11014KT CAVOK 31/17 Q1017 NOSIG
6:00 pm
V
88 °F 6¼ mi+ - 110°   110° 15 kt METAR LFCK 211600Z AUTO 11015KT CAVOK 31/17 Q1016 NOSIG
5:30 pm
V
88 °F 6¼ mi+ - 110°   110° 14 kt METAR LFCK 211530Z AUTO 11014KT CAVOK 31/17 Q1017 NOSIG
5:00 pm
V
91 °F 6¼ mi+ - 110°   110° 13 kt METAR LFCK 211500Z AUTO 11013KT CAVOK 33/17 Q1017 NOSIG
Older data

Download our app

Easy access to all aviation weather on your mobile phone and tablet.
With many features not available on the website, like offline support and a personal airport list.

We and third parties follow your internet behavior on our website with cookies. If you continue, we assume you agree with our cookie policy. Learn more